Sonic Adventure (DX): Time Rankings

Records: Times | Rings | Scores | Races | Bosses | Freestyle
Leaders: Times | Rings | Scores | Races | Bosses | Freestyle | Overall
Rank Player Percent Points Date
1 Gamepro011 98.9% 60 04-11-21
2 Niczur 98.5% 85 04-11-21
3 Sonicspeedruner 98.0% 113 04-11-21
4 Jawzun 93.6% 372 04-11-21
5 Dashjump 93.6% 374 04-11-21
6 Nim 93.4% 385 04-11-21
7 DarkPolarNight 92.7% 430 04-11-21
8 drminus 90.5% 559 04-11-21
9 F-Man 90.4% 565 04-11-21
10 THC98 90.0% 586 04-11-21
11 ike6252 88.1% 700 04-11-21
12 Avento128bits 87.8% 717 04-11-21
13 francisco 87.2% 753 04-11-21
14 DarkspinesSonic 86.8% 779 04-11-21
15 ethmar 86.7% 781 04-11-21
16 Marth 86.7% 784 04-11-21
17 frankoredstrato 85.4% 860 04-11-21
18 chainchump 83.8% 953 04-11-21
19 TheRealShadnic 83.6% 963 04-11-21
20 Paragod 82.5% 1030 04-11-21
21 HyperSonic7701 82.3% 1044 04-11-21
22 Calfd 82.0% 1061 04-11-21
23 Coolfansonic 79.5% 1208 04-11-21
24 InferSaime 79.1% 1231 04-11-21
25 xXMegaManXx 77.8% 1309 04-11-21
26 Stefan 77.7% 1312 04-11-21
27 PfoSonic 77.2% 1343 04-11-21
28 bertin 75.5% 1444 04-11-21
29 yoshifan 75.1% 1465 04-11-21
30 Dave Cramer 73.3% 1570 04-11-21
31 RPGnutter 73.2% 1577 04-11-21
32 sonicam 71.6% 1671 04-11-21
33 Cybrax 71.2% 1695 04-11-21
34 Dekuboy 70.3% 1752 04-11-21
35 CoEmpathy 69.6% 1791 04-11-21
36 Ring Rush 68.8% 1839 04-11-21
37 mike89 67.9% 1891 04-11-21
38 NintenDan 67.7% 1901 04-11-21
39 chaos shadow 67.6% 1907 04-11-21
40 a_moustache 66.7% 1964 04-11-21
41 SkyLights 64.3% 2104 04-11-21
42 iden1 63.9% 2129 04-11-21
43 Combo 62.8% 2190 04-11-21
44 SADXTryHard 60.6% 2324 04-11-21
45 P1 Pause 60.0% 2358 04-11-21
46 WeegeeZV 58.8% 2430 04-11-21
47 Groudon199 58.2% 2467 04-11-21
48 AxlThunder 57.8% 2485 04-11-21
49 Game_Complete 57.5% 2507 04-11-21
50 Shadow Jacky 57.3% 2518 04-11-21
51 VMU Player Banned 56.5% 2564 04-11-21
52 Thorn 56.2% 2581 04-11-21
53 SB737 55.0% 2651 04-11-21
54 The Knuckles Chao 54.9% 2661 04-11-21
55 SadisticMystic 54.8% 2667 04-11-21
56 Chao_Fan 54.7% 2671 04-11-21
57 Parax 54.4% 2689 04-11-21
58 Mastakirby 54.3% 2697 04-11-21
59 LittleBigness 53.6% 2733 04-11-21
60 KinkyCadence 53.6% 2734 04-11-21
61 mauserman 53.6% 2736 04-11-21
62 OmegaDJ 53.6% 2737 04-11-21
63 Psyknux 53.3% 2752 04-11-21
64 Auriman1 53.0% 2772 04-11-21
65 magnum12 52.9% 2778 04-11-21
66 Turbos 52.5% 2801 04-11-21
67 GerbilSoft 51.8% 2840 04-11-21
68 GreatStar 51.5% 2857 04-11-21
69 Webber3000 51.1% 2882 04-11-21
70 Hipertails12 50.5% 2916 04-11-21
71 N 50.3% 2930 04-11-21
72 SPVLABS 49.0% 3007 04-11-21
73 James_Bertolli 48.2% 3056 04-11-21
74 Cream147 47.8% 3077 04-11-21
75 welldooder64 47.0% 3125 04-11-21
76 Skylace 46.8% 3134 04-11-21
77 Omega Rafael Santos 46.6% 3149 04-11-21
78 Quartz 46.6% 3151 04-11-21
79 Psymar 46.4% 3162 04-11-21
80 Diamond 46.4% 3163 04-11-21
81 SonicWinDX 45.7% 3200 04-11-21
82 teamblackarms 45.3% 3226 04-11-21
83 Cyan Ryan 44.8% 3256 04-11-21
84 Andrea Ritsu 44.7% 3263 04-11-21
85 buddychaos0415 44.5% 3275 04-11-21
86 SilverSonic 43.9% 3306 04-11-21
87 paulie9990 43.5% 3334 04-11-21
87 sonicd5 43.5% 3334 04-11-21
89 SilvertheAlmighty 43.3% 3341 04-11-21
90 itsPersonnal 42.7% 3381 04-11-21
91 metanightmare22 42.6% 3385 04-11-21
92 lordmetalsonic 40.5% 3511 04-11-21
93 Arch 40.0% 3539 04-11-21
94 videogamemaster777 39.2% 3588 04-11-21
95 Termon 39.1% 3592 04-11-21
96 supersonicfan 38.7% 3616 04-11-21
97 Drakodan 38.2% 3645 04-11-21
98 LilZero 38.0% 3656 04-11-21
99 Kanimayo_Jp 37.9% 3662 04-11-21
100 supersonic465 37.6% 3677 04-11-21
101 FuzZerd 37.5% 3686 04-11-21
102 JamminX42 37.1% 3709 04-11-21
103 eggFL 37.0% 3714 04-11-21
104 BigAL49 36.8% 3727 04-11-21
105 Don 36.3% 3757 04-11-21
106 danieldude 36.2% 3761 04-11-21
107 Siavash Tazari 35.3% 3814 04-11-21
108 Zurggriff 35.2% 3823 04-11-21
109 Fr3nZy 35.0% 3831 04-11-21
110 f0rever_zer0 34.5% 3863 04-11-21
111 Cod4Scopes 34.2% 3882 04-11-21
112 LinksDarkArrows 33.4% 3926 04-11-21
113 Austinf 33.3% 3933 04-11-21
114 Therio 33.2% 3940 04-11-21
115 elecmouse101 32.7% 3969 04-11-21
116 Staf 32.4% 3988 04-11-21
117 MiStEr_ShAoLiN 32.0% 4010 04-11-21
118 ModifiedMonkee 31.9% 4016 04-11-21
119 R3FR4G 31.9% 4017 04-11-21
120 Twilisailor 31.6% 4032 04-11-21
121 videogamer1014 31.4% 4046 04-11-21
122 BrokenArthritis 31.3% 4051 04-11-21
123 Xia 30.9% 4074 04-11-21
124 AC-Tygo 30.8% 4084 04-11-21
125 welshmoose05 30.5% 4099 04-11-21
126 OddCook 29.9% 4132 04-11-21
127 The Great Lord Mick 29.6% 4153 04-11-21
128 Aitamen 29.1% 4179 04-11-21
129 Mcshuggets 29.0% 4187 04-11-21
130 Maxinfamily 29.0% 4190 04-11-21
131 Matt_TY 28.8% 4199 04-11-21
132 joecoolgames 28.5% 4219 04-11-21
133 dabestgamer 28.4% 4221 04-11-21
134 SuperBlitzCraig 28.0% 4245 04-11-21
135 Irregular Zero 27.9% 4250 04-11-21
136 Shadowthegreat 27.1% 4297 04-11-21
137 superjupi 27.1% 4300 04-11-21
137 SuperSonic101 27.1% 4300 04-11-21
139 Rolken 26.7% 4321 04-11-21
140 Hunters13 26.5% 4334 04-11-21
141 thewaytodawnnn 26.3% 4344 04-11-21
142 sonamyfan666 26.2% 4353 04-11-21
143 iarebored 26.0% 4364 04-11-21
144 koinu93 25.9% 4369 04-11-21
145 Spinballwizard 25.8% 4376 04-11-21
146 SaviourDC 25.7% 4380 04-11-21
147 SonicKnuckles 25.7% 4382 04-11-21
148 EngiNerd 24.8% 4436 04-11-21
149 adf 24.7% 4440 04-11-21
149 SonicAD 24.7% 4440 04-11-21
151 Pokemonmaster888 24.5% 4452 04-11-21
152 Megaman EXE565 23.9% 4491 04-11-21
153 The T 23.6% 4506 04-11-21
154 Sonic Singularity 23.0% 4539 04-11-21
155 Platformer 22.7% 4558 04-11-21
156 timpkmn89 22.5% 4571 04-11-21
157 SeaWolf 22.5% 4574 04-11-21
158 Swift Hobo 22.2% 4591 04-11-21
159 Sondow 21.6% 4626 04-11-21
160 Rickyman48 21.3% 4644 04-11-21
161 KitsuneYamaro 21.1% 4656 04-11-21
162 FoxBoy 20.9% 4664 04-11-21
163 Sm4sh 20.8% 4672 04-11-21
164 TFEC Headshot 20.3% 4701 04-11-21
165 Jerzia 20.3% 4703 04-11-21
166 Kogen Player Banned 19.9% 4722 04-11-21
167 Badlex727 19.6% 4742 04-11-21
168 Starlight Sable 19.6% 4745 04-11-21
169 IsisDazs 19.0% 4778 04-11-21
170 HyperSonic64 18.9% 4785 04-11-21
171 Powerjohn25 18.7% 4793 04-11-21
172 crazy1993 18.6% 4804 04-11-21
173 Modest 18.5% 4806 04-11-21
174 andres430 18.4% 4811 04-11-21
175 SonicU260 17.5% 4867 04-11-21
176 Zethor 17.2% 4883 04-11-21
177 MPit08 17.1% 4888 04-11-21
178 Swinkly 17.0% 4895 04-11-21
179 iSonicKid2K 16.4% 4933 04-11-21
180 dShadow 16.2% 4944 04-11-21
181 Cutiefox 15.9% 4963 04-11-21
182 Miles9999 15.6% 4980 04-11-21
183 Chawkk 15.5% 4983 04-11-21
184 Monkeh 15.5% 4986 04-11-21
185 Crispian 15.4% 4993 04-11-21
186 DaDude 14.9% 5018 04-11-21
187 Drflash55 14.6% 5035 04-11-21
188 Bass 14.4% 5047 04-11-21
189 Destroyer121121 14.3% 5057 04-11-21
190 Cruizer 14.2% 5060 04-11-21
191 Yish 14.1% 5066 04-11-21
192 zapp 14.1% 5068 04-11-21
193 neaolas 13.9% 5076 04-11-21
194 UninspiredUsername 13.8% 5084 04-11-21
195 superiorsonic 13.7% 5090 04-11-21
196 gamefreak1292 13.6% 5099 04-11-21
197 Cooljay 13.2% 5118 04-11-21
198 Sora_yx 13.1% 5128 04-11-21
199 Chaos_Overlord 12.4% 5166 04-11-21
200 Valfore 12.0% 5190 04-11-21
201 GarnetPrincess 11.9% 5194 04-11-21
202 Dage4Aquatic 11.8% 5204 04-11-21
203 ShinigamiMachine 11.6% 5217 04-11-21
203 soniccoloursunleashed 11.6% 5217 04-11-21
205 Sonicsuperstar1 11.1% 5242 04-11-21
206 FocusSight64 10.7% 5265 04-11-21
207 booo95 10.7% 5267 04-11-21
208 Werey 10.7% 5269 04-11-21
209 SirTobbii 10.5% 5281 04-11-21
210 Mo Player Banned 10.4% 5284 04-11-21
211 sonicspeed 10.4% 5287 04-11-21
212 Jua Rever 10.3% 5291 04-11-21
213 Venick409 9.5% 5338 04-11-21
214 nman36 9.4% 5346 04-11-21
214 Sithwarrior26 9.4% 5346 04-11-21
216 CyberShadow 8.8% 5378 04-11-21
216 ingx24 8.8% 5378 04-11-21
218 dekki1234 8.7% 5387 04-11-21
219 Fozer 8.3% 5408 04-11-21
220 Egor305 8.2% 5414 04-11-21
221 Colomb_30 8.2% 5417 04-11-21
222 Regano1000 8.1% 5420 04-11-21
223 1stKirbyever 7.9% 5432 04-11-21
224 nuckrieg 7.7% 5445 04-11-21
225 TimTH 7.6% 5449 04-11-21
226 Brian_pso 7.5% 5456 04-11-21
227 douglas 7.4% 5462 04-11-21
228 TakaRikka 7.2% 5473 04-11-21
229 Th4tN1nj4Turtl3 7.2% 5477 04-11-21
230 Zip 7.1% 5479 04-11-21
231 wheatrich 6.9% 5492 04-11-21
232 Mariosonic15 6.7% 5501 04-11-21
233 ieatatsonic 6.5% 5514 04-11-21
234 MStitomix 6.5% 5515 04-11-21
235 niscool 6.4% 5519 04-11-21
236 HermitHelmet 6.4% 5520 04-11-21
237 Cort_pso 6.1% 5537 04-11-21
238 Got4n 6.1% 5539 04-11-21
239 Triseena 6.1% 5540 04-11-21
240 ArthurVGCP 6.0% 5545 04-11-21
241 Jose_15 5.8% 5554 04-11-21
242 Artie 5.7% 5563 04-11-21
243 BlankTH 5.6% 5566 04-11-21
244 SuperSonicfan9595 5.6% 5569 04-11-21
245 Ace747 5.4% 5583 04-11-21
245 HHNNBBHHN 5.4% 5583 04-11-21
247 Richied 5.3% 5589 04-11-21
248 Paixii 5.2% 5595 04-11-21
249 Aiko 5.1% 5598 04-11-21
250 BallzeH 4.8% 5615 04-11-21
251 FSSRandomvids 4.8% 5616 04-11-21
251 slade23 4.8% 5616 04-11-21
253 Jamixesa 4.7% 5620 04-11-21
254 Mankster101 4.7% 5621 04-11-21
254 PsyBorg 4.7% 5621 04-11-21
256 ArcticDragon 4.7% 5623 04-11-21
257 BecauseWarAnvil 4.6% 5626 04-11-21
258 Xandre69 4.6% 5630 04-11-21
259 Nickson98 4.5% 5635 04-11-21
260 Crydio 4.4% 5638 04-11-21
261 TheUltraBlur 4.4% 5641 04-11-21
262 MarewBFN 4.2% 5654 04-11-21
263 stanski 4.1% 5658 04-11-21
264 tal39h 4.0% 5661 04-11-21
265 knuckles_sonic8 3.9% 5671 04-11-21
266 ALundstrom10 3.8% 5673 04-11-21
267 Blue Infamy 3.8% 5675 04-11-21
268 p0ker 3.8% 5676 04-11-21
269 ErrortheCucco 3.6% 5686 04-11-21
270 Rikum22 3.6% 5689 04-11-21
271 sonic1001 3.4% 5697 04-11-21
272 TheChaosEmeraIds 3.4% 5699 04-11-21
273 AJSIV 3.4% 5700 04-11-21
274 syco1098 3.3% 5703 04-11-21
275 IDGeek121 3.3% 5705 04-11-21
276 Sonic the Hedgehod16 3.3% 5706 04-11-21
277 ASINISTERTACO 3.2% 5713 04-11-21
278 sonicfan9 3.0% 5720 04-11-21
279 themachoman202 2.9% 5730 04-11-21
280 MK 2.8% 5733 04-11-21
281 Fivavoa 2.7% 5739 04-11-21
282 Mr. Jones 2.7% 5741 04-11-21
283 djmat 2.6% 5743 04-11-21
284 arcfx1985 2.6% 5744 04-11-21
284 BlackArmsShadow 2.6% 5744 04-11-21
286 Sonique Hedgehog 2.6% 5745 04-11-21
287 FlandreScarlet9999vr 2.5% 5750 04-11-21
287 ptorflaxendrosis 2.5% 5750 04-11-21
289 Zeldocto 2.5% 5754 04-11-21
290 BeeAwwb 2.4% 5759 04-11-21
291 KaM Mark MaK 2.3% 5762 04-11-21
292 ShadouZaHejjihoggu 2.3% 5765 04-11-21
293 darkstarblaze 2.2% 5771 04-11-21
294 Sonic The Star 2.1% 5774 04-11-21
295 darkersupershadic 2.1% 5775 04-11-21
296 SpiritDragon1995 2.1% 5776 04-11-21
297 Sarger001 2.0% 5781 04-11-21
298 sonic29887 2.0% 5782 04-11-21
299 Grady219 2.0% 5783 04-11-21
300 Jawaah 1.9% 5788 04-11-21
301 shadowblast63 Player Banned 1.9% 5789 04-11-21
302 Antek 1.8% 5793 04-11-21
303 Klaus 1.8% 5795 04-11-21
304 BioShadow 1.7% 5799 04-11-21
305 IcKY 1.5% 5811 04-11-21
306 SkyBon 1.4% 5817 04-11-21
307 isaihtb11 1.4% 5819 04-11-21
307 Shanekilz 1.4% 5819 04-11-21
309 OhNoes! 1.3% 5823 04-11-21
310 zaktu40 1.3% 5825 04-11-21
311 gaara1234 1.2% 5828 04-11-21
311 S-MS32X-S 1.2% 5828 04-11-21
313 MastaToken 1.1% 5835 04-11-21
314 Mister_Slick 1.0% 5839 04-11-21
315 Sonic06Fan 1.0% 5842 04-11-21
316 Rush Hero 0.9% 5844 04-11-21
317 ChaosNexuss 0.9% 5845 04-11-21
318 oTaiIilLsS 0.8% 5849 04-11-21
319 SonicMega167 0.8% 5850 04-11-21
320 SilverK 0.8% 5852 04-11-21
321 gamed00d 0.8% 5853 04-11-21
322 Burningskull123 0.5% 5869 04-11-21
323 Heroes_Hater 0.5% 5872 04-11-21
324 Sonicontherun 0.3% 5881 04-11-21
325 antiwwe 0.2% 5886 04-11-21
326 Iwannabelink 0.2% 5889 04-11-21
327 Genuine Hedgehog 0.2% 5890 04-11-21
328 dragondragon18 0.1% 5895 04-11-21
329 SonicK100 0.1% 5896 04-11-21
330 Tyrouble 0.0% 5901 04-11-21
331 LancexExWx 0.0% 5902 04-11-21
331 neji_hyuuga 0.0% 5902 04-11-21
331 Over 0.0% 5902 04-11-21
331 sdj6707 Player Banned 0.0% 5902 04-11-21
331 Tran Sonic Fan Player Banned 0.0% 5902 04-11-21

This page is using the New Data Table System. [FUTURE]

Game ID: 3 | Category ID: 1
Hits: 10,333 | Hits This Month: 17 | DB Calls: 24 | Mem Usage: 1.11 MB | Time: 0.05s | Printable

The Sonic Center v3.9
Copyright 2003-2011 by The Sonic Center Team.